sensor_id;sensor_type;location;lat;lon;timestamp;P1;durP1;ratioP1;P2;durP2;ratioP2
64188;SDS011;50493;50.970;10.082;2023-02-28T00:00:28;7.10;;;3.60;;
64188;SDS011;50493;50.970;10.082;2023-02-28T00:02:54;7.50;;;3.78;;
64188;SDS011;50493;50.970;10.082;2023-02-28T00:05:21;7.70;;;4.10;;
64188;SDS011;50493;50.970;10.082;2023-02-28T00:07:49;12.90;;;5.53;;
64188;SDS011;50493;50.970;10.082;2023-02-28T00:10:16;8.65;;;4.25;;
64188;SDS011;50493;50.970;10.082;2023-02-28T00:12:47;7.03;;;3.53;;
64188;SDS011;50493;50.970;10.082;2023-02-28T00:15:13;8.90;;;4.05;;
64188;SDS011;50493;50.970;10.082;2023-02-28T00:17:38;14.90;;;6.00;;
64188;SDS011;50493;50.970;10.082;2023-02-28T00:20:05;18.90;;;7.78;;
64188;SDS011;50493;50.970;10.082;2023-02-28T00:22:33;8.07;;;3.90;;
64188;SDS011;50493;50.970;10.082;2023-02-28T00:25:00;12.70;;;6.18;;
64188;SDS011;50493;50.970;10.082;2023-02-28T00:27:25;6.75;;;3.42;;
64188;SDS011;50493;50.970;10.082;2023-02-28T00:29:51;12.45;;;6.15;;
64188;SDS011;50493;50.970;10.082;2023-02-28T00:32:16;8.27;;;4.20;;
64188;SDS011;50493;50.970;10.082;2023-02-28T00:34:43;9.15;;;4.40;;
64188;SDS011;50493;50.970;10.082;2023-02-28T00:37:09;7.07;;;3.58;;
64188;SDS011;50493;50.970;10.082;2023-02-28T00:39:37;6.45;;;3.38;;
64188;SDS011;50493;50.970;10.082;2023-02-28T00:42:04;6.72;;;3.53;;
64188;SDS011;50493;50.970;10.082;2023-02-28T00:44:30;7.25;;;3.60;;
64188;SDS011;50493;50.970;10.082;2023-02-28T00:46:56;8.50;;;4.03;;
64188;SDS011;50493;50.970;10.082;2023-02-28T00:49:22;8.18;;;4.10;;
64188;SDS011;50493;50.970;10.082;2023-02-28T00:51:48;6.32;;;3.40;;
64188;SDS011;50493;50.970;10.082;2023-02-28T00:54:13;13.30;;;5.22;;
64188;SDS011;50493;50.970;10.082;2023-02-28T00:56:39;7.63;;;3.85;;
64188;SDS011;50493;50.970;10.082;2023-02-28T00:59:05;7.72;;;3.47;;
64188;SDS011;50493;50.970;10.082;2023-02-28T01:01:31;6.70;;;3.75;;
64188;SDS011;50493;50.970;10.082;2023-02-28T01:03:57;7.38;;;3.65;;
64188;SDS011;50493;50.970;10.082;2023-02-28T01:06:22;6.60;;;3.45;;
64188;SDS011;50493;50.970;10.082;2023-02-28T01:08:48;6.32;;;3.40;;
64188;SDS011;50493;50.970;10.082;2023-02-28T01:11:14;7.22;;;3.90;;
64188;SDS011;50493;50.970;10.082;2023-02-28T01:13:41;8.98;;;3.85;;
64188;SDS011;50493;50.970;10.082;2023-02-28T01:16:08;6.32;;;3.25;;
64188;SDS011;50493;50.970;10.082;2023-02-28T01:18:34;6.15;;;3.30;;
64188;SDS011;50493;50.970;10.082;2023-02-28T01:21:02;6.10;;;3.60;;
64188;SDS011;50493;50.970;10.082;2023-02-28T01:23:29;6.15;;;3.30;;
64188;SDS011;50493;50.970;10.082;2023-02-28T01:25:54;6.60;;;3.40;;
64188;SDS011;50493;50.970;10.082;2023-02-28T01:28:20;6.75;;;3.55;;
64188;SDS011;50493;50.970;10.082;2023-02-28T01:30:47;6.25;;;3.20;;
64188;SDS011;50493;50.970;10.082;2023-02-28T01:33:14;7.22;;;3.67;;
64188;SDS011;50493;50.970;10.082;2023-02-28T01:35:39;6.30;;;3.17;;
64188;SDS011;50493;50.970;10.082;2023-02-28T01:38:05;7.07;;;3.47;;
64188;SDS011;50493;50.970;10.082;2023-02-28T01:40:30;7.65;;;3.85;;
64188;SDS011;50493;50.970;10.082;2023-02-28T01:42:55;6.63;;;3.72;;
64188;SDS011;50493;50.970;10.082;2023-02-28T01:45:22;6.88;;;3.50;;
64188;SDS011;50493;50.970;10.082;2023-02-28T01:47:51;6.70;;;3.08;;
64188;SDS011;50493;50.970;10.082;2023-02-28T01:50:22;5.60;;;3.10;;
64188;SDS011;50493;50.970;10.082;2023-02-28T01:52:50;7.55;;;3.67;;
64188;SDS011;50493;50.970;10.082;2023-02-28T01:55:19;5.78;;;3.30;;
64188;SDS011;50493;50.970;10.082;2023-02-28T01:57:48;8.77;;;3.67;;
64188;SDS011;50493;50.970;10.082;2023-02-28T02:00:17;7.13;;;3.60;;
64188;SDS011;50493;50.970;10.082;2023-02-28T02:02:46;6.20;;;3.22;;
64188;SDS011;50493;50.970;10.082;2023-02-28T02:05:15;7.70;;;3.55;;
64188;SDS011;50493;50.970;10.082;2023-02-28T02:07:45;6.13;;;3.30;;
64188;SDS011;50493;50.970;10.082;2023-02-28T02:10:14;6.90;;;3.20;;
64188;SDS011;50493;50.970;10.082;2023-02-28T02:12:46;6.93;;;3.67;;
64188;SDS011;50493;50.970;10.082;2023-02-28T02:15:30;6.80;;;3.38;;
64188;SDS011;50493;50.970;10.082;2023-02-28T02:18:00;7.20;;;3.40;;
64188;SDS011;50493;50.970;10.082;2023-02-28T02:26:33;6.30;;;3.40;;
64188;SDS011;50493;50.970;10.082;2023-02-28T02:29:30;5.25;;;2.80;;
64188;SDS011;50493;50.970;10.082;2023-02-28T02:32:12;6.78;;;3.40;;
64188;SDS011;50493;50.970;10.082;2023-02-28T02:34:52;6.18;;;3.17;;
64188;SDS011;50493;50.970;10.082;2023-02-28T02:37:29;8.23;;;3.45;;
64188;SDS011;50493;50.970;10.082;2023-02-28T02:40:03;6.55;;;3.40;;
64188;SDS011;50493;50.970;10.082;2023-02-28T02:42:37;6.13;;;3.22;;
64188;SDS011;50493;50.970;10.082;2023-02-28T02:45:09;6.47;;;3.08;;
64188;SDS011;50493;50.970;10.082;2023-02-28T02:47:37;5.85;;;2.83;;
64188;SDS011;50493;50.970;10.082;2023-02-28T02:50:07;5.82;;;3.22;;
64188;SDS011;50493;50.970;10.082;2023-02-28T02:52:37;5.93;;;3.30;;
64188;SDS011;50493;50.970;10.082;2023-02-28T02:55:06;6.18;;;3.33;;
64188;SDS011;50493;50.970;10.082;2023-02-28T02:57:33;6.32;;;3.53;;
64188;SDS011;50493;50.970;10.082;2023-02-28T03:00:02;7.07;;;3.55;;
64188;SDS011;50493;50.970;10.082;2023-02-28T03:02:30;5.95;;;3.03;;
64188;SDS011;50493;50.970;10.082;2023-02-28T03:04:59;5.97;;;2.97;;
64188;SDS011;50493;50.970;10.082;2023-02-28T03:07:29;6.22;;;3.22;;
64188;SDS011;50493;50.970;10.082;2023-02-28T03:09:55;6.53;;;3.65;;
64188;SDS011;50493;50.970;10.082;2023-02-28T03:12:22;6.28;;;3.25;;
64188;SDS011;50493;50.970;10.082;2023-02-28T03:14:55;7.20;;;3.15;;
64188;SDS011;50493;50.970;10.082;2023-02-28T03:17:30;7.63;;;3.30;;
64188;SDS011;50493;50.970;10.082;2023-02-28T03:20:15;4.63;;;2.63;;
64188;SDS011;50493;50.970;10.082;2023-02-28T03:22:52;8.23;;;3.53;;
64188;SDS011;50493;50.970;10.082;2023-02-28T03:25:28;6.40;;;3.80;;
64188;SDS011;50493;50.970;10.082;2023-02-28T03:28:02;7.03;;;3.20;;
64188;SDS011;50493;50.970;10.082;2023-02-28T03:30:35;6.00;;;2.95;;
64188;SDS011;50493;50.970;10.082;2023-02-28T03:33:06;5.70;;;3.10;;
64188;SDS011;50493;50.970;10.082;2023-02-28T03:35:36;6.70;;;3.03;;
64188;SDS011;50493;50.970;10.082;2023-02-28T03:38:07;5.45;;;3.22;;
64188;SDS011;50493;50.970;10.082;2023-02-28T03:40:38;6.30;;;3.30;;
64188;SDS011;50493;50.970;10.082;2023-02-28T03:43:08;6.63;;;3.33;;
64188;SDS011;50493;50.970;10.082;2023-02-28T03:45:37;5.00;;;2.67;;
64188;SDS011;50493;50.970;10.082;2023-02-28T03:48:07;6.38;;;3.00;;
64188;SDS011;50493;50.970;10.082;2023-02-28T03:50:38;5.28;;;2.90;;
64188;SDS011;50493;50.970;10.082;2023-02-28T03:53:08;6.43;;;3.08;;
64188;SDS011;50493;50.970;10.082;2023-02-28T03:55:39;5.35;;;3.20;;
64188;SDS011;50493;50.970;10.082;2023-02-28T03:58:14;6.22;;;3.30;;
64188;SDS011;50493;50.970;10.082;2023-02-28T04:00:46;5.43;;;3.17;;
64188;SDS011;50493;50.970;10.082;2023-02-28T04:03:14;6.75;;;3.08;;
64188;SDS011;50493;50.970;10.082;2023-02-28T04:05:46;6.22;;;3.10;;
64188;SDS011;50493;50.970;10.082;2023-02-28T04:08:16;5.90;;;2.90;;
64188;SDS011;50493;50.970;10.082;2023-02-28T04:10:42;5.00;;;2.90;;
64188;SDS011;50493;50.970;10.082;2023-02-28T04:13:13;6.10;;;2.90;;
64188;SDS011;50493;50.970;10.082;2023-02-28T04:15:38;6.63;;;3.10;;
64188;SDS011;50493;50.970;10.082;2023-02-28T04:18:04;5.78;;;3.08;;
64188;SDS011;50493;50.970;10.082;2023-02-28T04:20:29;7.68;;;3.28;;
64188;SDS011;50493;50.970;10.082;2023-02-28T04:22:54;5.50;;;3.20;;
64188;SDS011;50493;50.970;10.082;2023-02-28T04:25:21;5.53;;;3.15;;
64188;SDS011;50493;50.970;10.082;2023-02-28T04:27:46;5.22;;;2.95;;
64188;SDS011;50493;50.970;10.082;2023-02-28T04:30:12;5.00;;;2.47;;
64188;SDS011;50493;50.970;10.082;2023-02-28T04:32:37;5.10;;;2.72;;
64188;SDS011;50493;50.970;10.082;2023-02-28T04:35:03;6.50;;;2.88;;
64188;SDS011;50493;50.970;10.082;2023-02-28T04:37:29;6.32;;;3.30;;
64188;SDS011;50493;50.970;10.082;2023-02-28T04:39:54;5.80;;;2.90;;
64188;SDS011;50493;50.970;10.082;2023-02-28T04:42:21;5.57;;;3.13;;
64188;SDS011;50493;50.970;10.082;2023-02-28T04:44:46;5.82;;;2.88;;
64188;SDS011;50493;50.970;10.082;2023-02-28T04:47:12;6.55;;;3.20;;
64188;SDS011;50493;50.970;10.082;2023-02-28T04:49:37;6.05;;;2.95;;
64188;SDS011;50493;50.970;10.082;2023-02-28T04:52:03;4.70;;;2.75;;
64188;SDS011;50493;50.970;10.082;2023-02-28T04:54:28;5.40;;;2.80;;
64188;SDS011;50493;50.970;10.082;2023-02-28T04:56:54;6.00;;;2.95;;
64188;SDS011;50493;50.970;10.082;2023-02-28T04:59:21;5.32;;;3.10;;
64188;SDS011;50493;50.970;10.082;2023-02-28T05:01:47;5.20;;;2.78;;
64188;SDS011;50493;50.970;10.082;2023-02-28T05:04:13;6.53;;;2.95;;
64188;SDS011;50493;50.970;10.082;2023-02-28T05:06:39;6.53;;;3.35;;
64188;SDS011;50493;50.970;10.082;2023-02-28T05:09:04;7.93;;;3.28;;
64188;SDS011;50493;50.970;10.082;2023-02-28T05:11:30;5.60;;;2.47;;
64188;SDS011;50493;50.970;10.082;2023-02-28T05:13:59;5.70;;;2.78;;
64188;SDS011;50493;50.970;10.082;2023-02-28T05:16:27;5.10;;;2.63;;
64188;SDS011;50493;50.970;10.082;2023-02-28T05:18:52;5.32;;;2.88;;
64188;SDS011;50493;50.970;10.082;2023-02-28T05:21:26;6.38;;;3.17;;
64188;SDS011;50493;50.970;10.082;2023-02-28T05:23:53;7.00;;;3.30;;
64188;SDS011;50493;50.970;10.082;2023-02-28T05:26:20;11.50;;;6.00;;
64188;SDS011;50493;50.970;10.082;2023-02-28T05:28:45;6.40;;;2.80;;
64188;SDS011;50493;50.970;10.082;2023-02-28T05:31:10;5.82;;;3.22;;
64188;SDS011;50493;50.970;10.082;2023-02-28T05:33:37;8.75;;;3.88;;
64188;SDS011;50493;50.970;10.082;2023-02-28T05:36:03;6.22;;;3.85;;
64188;SDS011;50493;50.970;10.082;2023-02-28T05:38:29;4.60;;;2.30;;
64188;SDS011;50493;50.970;10.082;2023-02-28T05:40:54;7.88;;;3.75;;
64188;SDS011;50493;50.970;10.082;2023-02-28T05:43:19;6.90;;;3.58;;
64188;SDS011;50493;50.970;10.082;2023-02-28T05:45:45;5.32;;;3.08;;
64188;SDS011;50493;50.970;10.082;2023-02-28T05:48:10;7.80;;;3.10;;
64188;SDS011;50493;50.970;10.082;2023-02-28T05:50:37;5.45;;;2.83;;
64188;SDS011;50493;50.970;10.082;2023-02-28T05:53:02;7.00;;;3.42;;
64188;SDS011;50493;50.970;10.082;2023-02-28T05:55:28;11.85;;;7.30;;
64188;SDS011;50493;50.970;10.082;2023-02-28T05:57:53;5.53;;;3.35;;
64188;SDS011;50493;50.970;10.082;2023-02-28T06:00:19;5.65;;;3.20;;
64188;SDS011;50493;50.970;10.082;2023-02-28T06:02:45;6.10;;;3.20;;
64188;SDS011;50493;50.970;10.082;2023-02-28T06:05:13;6.43;;;3.70;;
64188;SDS011;50493;50.970;10.082;2023-02-28T06:07:41;7.82;;;4.15;;
64188;SDS011;50493;50.970;10.082;2023-02-28T06:10:07;7.50;;;3.70;;
64188;SDS011;50493;50.970;10.082;2023-02-28T06:12:34;5.95;;;3.42;;
64188;SDS011;50493;50.970;10.082;2023-02-28T06:15:00;5.60;;;2.90;;
64188;SDS011;50493;50.970;10.082;2023-02-28T06:17:25;6.68;;;3.55;;
64188;SDS011;50493;50.970;10.082;2023-02-28T06:19:50;6.65;;;3.22;;
64188;SDS011;50493;50.970;10.082;2023-02-28T06:22:16;5.78;;;3.13;;
64188;SDS011;50493;50.970;10.082;2023-02-28T06:24:42;5.38;;;3.15;;
64188;SDS011;50493;50.970;10.082;2023-02-28T06:27:08;5.50;;;3.67;;
64188;SDS011;50493;50.970;10.082;2023-02-28T06:29:33;5.13;;;2.63;;
64188;SDS011;50493;50.970;10.082;2023-02-28T06:32:00;7.43;;;3.78;;
64188;SDS011;50493;50.970;10.082;2023-02-28T06:34:25;7.35;;;3.35;;
64188;SDS011;50493;50.970;10.082;2023-02-28T06:36:51;7.15;;;3.78;;
64188;SDS011;50493;50.970;10.082;2023-02-28T06:39:17;7.80;;;3.50;;
64188;SDS011;50493;50.970;10.082;2023-02-28T06:41:44;7.40;;;3.47;;
64188;SDS011;50493;50.970;10.082;2023-02-28T06:44:11;5.90;;;3.35;;
64188;SDS011;50493;50.970;10.082;2023-02-28T06:46:38;7.35;;;3.17;;
64188;SDS011;50493;50.970;10.082;2023-02-28T06:49:04;6.25;;;3.40;;
64188;SDS011;50493;50.970;10.082;2023-02-28T06:51:30;6.38;;;3.05;;
64188;SDS011;50493;50.970;10.082;2023-02-28T06:53:55;6.57;;;3.58;;
64188;SDS011;50493;50.970;10.082;2023-02-28T06:56:21;4.38;;;2.75;;
64188;SDS011;50493;50.970;10.082;2023-02-28T06:58:48;5.97;;;3.40;;
64188;SDS011;50493;50.970;10.082;2023-02-28T07:01:14;6.55;;;3.63;;
64188;SDS011;50493;50.970;10.082;2023-02-28T07:03:40;6.55;;;3.40;;
64188;SDS011;50493;50.970;10.082;2023-02-28T07:06:05;7.63;;;4.10;;
64188;SDS011;50493;50.970;10.082;2023-02-28T07:08:31;8.57;;;3.50;;
64188;SDS011;50493;50.970;10.082;2023-02-28T07:10:57;7.28;;;3.28;;
64188;SDS011;50493;50.970;10.082;2023-02-28T07:13:23;5.60;;;3.30;;
64188;SDS011;50493;50.970;10.082;2023-02-28T07:15:57;5.97;;;2.97;;
64188;SDS011;50493;50.970;10.082;2023-02-28T07:18:23;10.05;;;4.40;;
64188;SDS011;50493;50.970;10.082;2023-02-28T07:20:48;6.38;;;3.50;;
64188;SDS011;50493;50.970;10.082;2023-02-28T07:23:14;5.63;;;3.05;;
64188;SDS011;50493;50.970;10.082;2023-02-28T07:25:40;6.90;;;4.07;;
64188;SDS011;50493;50.970;10.082;2023-02-28T07:28:05;5.07;;;3.30;;
64188;SDS011;50493;50.970;10.082;2023-02-28T07:30:30;5.57;;;3.22;;
64188;SDS011;50493;50.970;10.082;2023-02-28T07:32:57;5.38;;;3.40;;
64188;SDS011;50493;50.970;10.082;2023-02-28T07:35:23;5.78;;;3.25;;
64188;SDS011;50493;50.970;10.082;2023-02-28T07:37:48;6.57;;;3.17;;
64188;SDS011;50493;50.970;10.082;2023-02-28T07:40:14;5.03;;;2.85;;
64188;SDS011;50493;50.970;10.082;2023-02-28T07:42:40;6.13;;;3.28;;
64188;SDS011;50493;50.970;10.082;2023-02-28T07:45:07;5.78;;;3.08;;
64188;SDS011;50493;50.970;10.082;2023-02-28T07:47:36;5.35;;;3.30;;
64188;SDS011;50493;50.970;10.082;2023-02-28T07:50:03;6.13;;;3.72;;
64188;SDS011;50493;50.970;10.082;2023-02-28T07:52:28;4.53;;;2.75;;
64188;SDS011;50493;50.970;10.082;2023-02-28T07:54:54;5.95;;;3.40;;
64188;SDS011;50493;50.970;10.082;2023-02-28T07:57:19;5.78;;;3.17;;
64188;SDS011;50493;50.970;10.082;2023-02-28T07:59:44;7.60;;;4.00;;
64188;SDS011;50493;50.970;10.082;2023-02-28T08:02:10;5.18;;;3.13;;
64188;SDS011;50493;50.970;10.082;2023-02-28T08:04:37;6.95;;;3.80;;
64188;SDS011;50493;50.970;10.082;2023-02-28T08:07:04;6.70;;;3.90;;
64188;SDS011;50493;50.970;10.082;2023-02-28T08:09:29;6.80;;;3.83;;
64188;SDS011;50493;50.970;10.082;2023-02-28T08:11:55;6.18;;;3.88;;
64188;SDS011;50493;50.970;10.082;2023-02-28T08:14:20;6.78;;;3.60;;
64188;SDS011;50493;50.970;10.082;2023-02-28T08:16:46;7.25;;;4.47;;
64188;SDS011;50493;50.970;10.082;2023-02-28T08:19:11;6.10;;;3.95;;
64188;SDS011;50493;50.970;10.082;2023-02-28T08:21:36;6.82;;;4.20;;
64188;SDS011;50493;50.970;10.082;2023-02-28T08:24:03;6.15;;;3.80;;
64188;SDS011;50493;50.970;10.082;2023-02-28T08:26:29;8.07;;;4.47;;
64188;SDS011;50493;50.970;10.082;2023-02-28T08:28:54;9.38;;;3.83;;
64188;SDS011;50493;50.970;10.082;2023-02-28T08:31:20;6.68;;;4.22;;
64188;SDS011;50493;50.970;10.082;2023-02-28T08:33:45;8.15;;;4.95;;
64188;SDS011;50493;50.970;10.082;2023-02-28T08:36:13;6.43;;;4.10;;
64188;SDS011;50493;50.970;10.082;2023-02-28T08:38:40;7.22;;;3.85;;
64188;SDS011;50493;50.970;10.082;2023-02-28T08:41:07;6.25;;;4.38;;
64188;SDS011;50493;50.970;10.082;2023-02-28T08:43:35;6.88;;;3.90;;
64188;SDS011;50493;50.970;10.082;2023-02-28T08:46:02;7.05;;;4.90;;
64188;SDS011;50493;50.970;10.082;2023-02-28T08:48:29;7.97;;;5.03;;
64188;SDS011;50493;50.970;10.082;2023-02-28T08:50:56;13.05;;;6.72;;
64188;SDS011;50493;50.970;10.082;2023-02-28T08:53:21;7.28;;;4.20;;
64188;SDS011;50493;50.970;10.082;2023-02-28T08:55:47;8.38;;;5.28;;
64188;SDS011;50493;50.970;10.082;2023-02-28T08:58:21;7.95;;;4.90;;
64188;SDS011;50493;50.970;10.082;2023-02-28T09:00:46;6.78;;;4.70;;
64188;SDS011;50493;50.970;10.082;2023-02-28T09:03:11;8.77;;;4.72;;
64188;SDS011;50493;50.970;10.082;2023-02-28T09:05:37;6.75;;;3.90;;
64188;SDS011;50493;50.970;10.082;2023-02-28T09:08:02;7.00;;;4.25;;
64188;SDS011;50493;50.970;10.082;2023-02-28T09:10:28;8.25;;;3.38;;
64188;SDS011;50493;50.970;10.082;2023-02-28T09:12:53;6.28;;;4.45;;
64188;SDS011;50493;50.970;10.082;2023-02-28T09:15:20;7.22;;;4.35;;
64188;SDS011;50493;50.970;10.082;2023-02-28T09:17:45;21.30;;;10.23;;
64188;SDS011;50493;50.970;10.082;2023-02-28T09:20:11;70.47;;;34.05;;
64188;SDS011;50493;50.970;10.082;2023-02-28T09:22:37;30.00;;;12.65;;
64188;SDS011;50493;50.970;10.082;2023-02-28T09:25:02;10.48;;;5.85;;
64188;SDS011;50493;50.970;10.082;2023-02-28T09:27:28;47.70;;;21.58;;
64188;SDS011;50493;50.970;10.082;2023-02-28T09:29:53;41.42;;;20.35;;
64188;SDS011;50493;50.970;10.082;2023-02-28T09:32:20;26.42;;;11.52;;
64188;SDS011;50493;50.970;10.082;2023-02-28T09:34:45;26.42;;;11.80;;
64188;SDS011;50493;50.970;10.082;2023-02-28T09:37:10;8.40;;;4.53;;
64188;SDS011;50493;50.970;10.082;2023-02-28T09:39:36;9.80;;;5.65;;
64188;SDS011;50493;50.970;10.082;2023-02-28T09:42:01;34.38;;;14.88;;
64188;SDS011;50493;50.970;10.082;2023-02-28T09:44:28;12.35;;;7.25;;
64188;SDS011;50493;50.970;10.082;2023-02-28T09:46:59;7.55;;;4.40;;
64188;SDS011;50493;50.970;10.082;2023-02-28T09:49:33;18.88;;;10.30;;
64188;SDS011;50493;50.970;10.082;2023-02-28T09:52:05;8.30;;;4.80;;
64188;SDS011;50493;50.970;10.082;2023-02-28T09:54:35;61.75;;;28.42;;
64188;SDS011;50493;50.970;10.082;2023-02-28T09:57:04;48.67;;;21.63;;
64188;SDS011;50493;50.970;10.082;2023-02-28T09:59:36;33.42;;;15.32;;
64188;SDS011;50493;50.970;10.082;2023-02-28T10:02:15;16.23;;;8.55;;
64188;SDS011;50493;50.970;10.082;2023-02-28T10:04:49;13.30;;;6.07;;
64188;SDS011;50493;50.970;10.082;2023-02-28T10:07:21;24.98;;;12.60;;
64188;SDS011;50493;50.970;10.082;2023-02-28T10:10:01;46.80;;;21.75;;
64188;SDS011;50493;50.970;10.082;2023-02-28T10:14:57;21.45;;;10.82;;
64188;SDS011;50493;50.970;10.082;2023-02-28T10:17:25;20.23;;;9.73;;
64188;SDS011;50493;50.970;10.082;2023-02-28T10:19:56;11.27;;;6.47;;
64188;SDS011;50493;50.970;10.082;2023-02-28T10:22:27;11.90;;;7.15;;
64188;SDS011;50493;50.970;10.082;2023-02-28T10:24:57;22.35;;;11.18;;
64188;SDS011;50493;50.970;10.082;2023-02-28T10:27:28;25.90;;;12.55;;
64188;SDS011;50493;50.970;10.082;2023-02-28T10:29:56;9.65;;;5.97;;
64188;SDS011;50493;50.970;10.082;2023-02-28T10:32:23;26.95;;;14.48;;
64188;SDS011;50493;50.970;10.082;2023-02-28T10:34:50;12.45;;;7.63;;
64188;SDS011;50493;50.970;10.082;2023-02-28T10:37:18;26.27;;;13.43;;
64188;SDS011;50493;50.970;10.082;2023-02-28T10:39:45;9.60;;;6.05;;
64188;SDS011;50493;50.970;10.082;2023-02-28T10:42:24;13.93;;;7.78;;
64188;SDS011;50493;50.970;10.082;2023-02-28T10:45:04;13.73;;;7.57;;
64188;SDS011;50493;50.970;10.082;2023-02-28T10:47:40;8.25;;;5.00;;
64188;SDS011;50493;50.970;10.082;2023-02-28T10:50:26;10.18;;;6.35;;
64188;SDS011;50493;50.970;10.082;2023-02-28T10:52:54;12.80;;;7.00;;
64188;SDS011;50493;50.970;10.082;2023-02-28T10:55:30;21.65;;;9.07;;
64188;SDS011;50493;50.970;10.082;2023-02-28T10:57:56;7.93;;;5.78;;
64188;SDS011;50493;50.970;10.082;2023-02-28T11:00:22;11.32;;;6.63;;
64188;SDS011;50493;50.970;10.082;2023-02-28T11:02:50;9.95;;;6.18;;
64188;SDS011;50493;50.970;10.082;2023-02-28T11:05:24;9.38;;;5.43;;
64188;SDS011;50493;50.970;10.082;2023-02-28T11:10:23;7.75;;;5.00;;
64188;SDS011;50493;50.970;10.082;2023-02-28T11:12:54;10.50;;;6.13;;
64188;SDS011;50493;50.970;10.082;2023-02-28T11:15:21;18.67;;;9.93;;
64188;SDS011;50493;50.970;10.082;2023-02-28T11:17:53;19.20;;;9.32;;
64188;SDS011;50493;50.970;10.082;2023-02-28T11:20:20;9.60;;;6.03;;
64188;SDS011;50493;50.970;10.082;2023-02-28T11:22:48;16.30;;;8.52;;
64188;SDS011;50493;50.970;10.082;2023-02-28T11:25:19;14.77;;;8.27;;
64188;SDS011;50493;50.970;10.082;2023-02-28T11:27:48;9.80;;;5.75;;
64188;SDS011;50493;50.970;10.082;2023-02-28T11:30:28;16.20;;;8.88;;
64188;SDS011;50493;50.970;10.082;2023-02-28T11:32:56;11.63;;;6.63;;
64188;SDS011;50493;50.970;10.082;2023-02-28T11:35:23;9.15;;;5.70;;
64188;SDS011;50493;50.970;10.082;2023-02-28T11:37:50;8.88;;;4.68;;
64188;SDS011;50493;50.970;10.082;2023-02-28T11:40:18;6.47;;;4.63;;
64188;SDS011;50493;50.970;10.082;2023-02-28T11:42:53;6.40;;;4.55;;
64188;SDS011;50493;50.970;10.082;2023-02-28T11:45:36;7.78;;;4.93;;
64188;SDS011;50493;50.970;10.082;2023-02-28T11:48:12;7.57;;;5.20;;
64188;SDS011;50493;50.970;10.082;2023-02-28T11:50:50;8.10;;;5.32;;
64188;SDS011;50493;50.970;10.082;2023-02-28T11:53:26;10.73;;;6.63;;
64188;SDS011;50493;50.970;10.082;2023-02-28T11:58:42;11.48;;;7.18;;
64188;SDS011;50493;50.970;10.082;2023-02-28T12:01:19;14.27;;;8.00;;
64188;SDS011;50493;50.970;10.082;2023-02-28T12:03:57;11.98;;;6.35;;
64188;SDS011;50493;50.970;10.082;2023-02-28T12:06:30;11.82;;;7.03;;
64188;SDS011;50493;50.970;10.082;2023-02-28T12:09:09;7.82;;;6.10;;
64188;SDS011;50493;50.970;10.082;2023-02-28T12:11:47;9.57;;;6.45;;
64188;SDS011;50493;50.970;10.082;2023-02-28T12:17:14;11.63;;;6.90;;
64188;SDS011;50493;50.970;10.082;2023-02-28T12:19:48;11.70;;;6.85;;
64188;SDS011;50493;50.970;10.082;2023-02-28T12:22:29;7.40;;;5.15;;
64188;SDS011;50493;50.970;10.082;2023-02-28T12:28:07;12.13;;;7.88;;
64188;SDS011;50493;50.970;10.082;2023-02-28T12:30:35;8.77;;;6.55;;
64188;SDS011;50493;50.970;10.082;2023-02-28T12:33:07;11.13;;;7.80;;
64188;SDS011;50493;50.970;10.082;2023-02-28T12:35:37;10.35;;;6.32;;
64188;SDS011;50493;50.970;10.082;2023-02-28T12:38:08;10.40;;;6.70;;
64188;SDS011;50493;50.970;10.082;2023-02-28T12:40:42;9.13;;;5.88;;
64188;SDS011;50493;50.970;10.082;2023-02-28T12:43:12;10.93;;;7.07;;
64188;SDS011;50493;50.970;10.082;2023-02-28T12:45:40;9.60;;;6.25;;
64188;SDS011;50493;50.970;10.082;2023-02-28T12:48:10;11.25;;;6.55;;
64188;SDS011;50493;50.970;10.082;2023-02-28T12:50:38;9.57;;;6.63;;
64188;SDS011;50493;50.970;10.082;2023-02-28T12:53:06;8.88;;;6.28;;
64188;SDS011;50493;50.970;10.082;2023-02-28T12:55:38;11.43;;;7.03;;
64188;SDS011;50493;50.970;10.082;2023-02-28T12:58:13;12.30;;;7.60;;
64188;SDS011;50493;50.970;10.082;2023-02-28T13:00:49;12.88;;;6.95;;
64188;SDS011;50493;50.970;10.082;2023-02-28T13:03:45;9.63;;;6.65;;
64188;SDS011;50493;50.970;10.082;2023-02-28T13:06:31;9.18;;;6.50;;
64188;SDS011;50493;50.970;10.082;2023-02-28T13:09:09;10.10;;;6.32;;
64188;SDS011;50493;50.970;10.082;2023-02-28T13:11:39;10.48;;;6.50;;
64188;SDS011;50493;50.970;10.082;2023-02-28T13:14:16;10.77;;;6.28;;
64188;SDS011;50493;50.970;10.082;2023-02-28T13:16:56;9.90;;;6.68;;
64188;SDS011;50493;50.970;10.082;2023-02-28T13:19:24;11.32;;;6.85;;
64188;SDS011;50493;50.970;10.082;2023-02-28T13:21:51;8.98;;;6.13;;
64188;SDS011;50493;50.970;10.082;2023-02-28T13:24:40;9.88;;;6.70;;
64188;SDS011;50493;50.970;10.082;2023-02-28T13:27:21;9.43;;;5.93;;
64188;SDS011;50493;50.970;10.082;2023-02-28T13:29:58;11.25;;;7.55;;
64188;SDS011;50493;50.970;10.082;2023-02-28T13:32:31;9.60;;;6.40;;
64188;SDS011;50493;50.970;10.082;2023-02-28T13:35:14;11.55;;;6.43;;
64188;SDS011;50493;50.970;10.082;2023-02-28T13:40:49;9.15;;;6.25;;
64188;SDS011;50493;50.970;10.082;2023-02-28T13:43:16;9.30;;;6.03;;
64188;SDS011;50493;50.970;10.082;2023-02-28T13:45:56;8.70;;;6.10;;
64188;SDS011;50493;50.970;10.082;2023-02-28T13:48:32;9.90;;;6.47;;
64188;SDS011;50493;50.970;10.082;2023-02-28T13:50:57;9.23;;;6.38;;
64188;SDS011;50493;50.970;10.082;2023-02-28T13:53:34;12.15;;;6.82;;
64188;SDS011;50493;50.970;10.082;2023-02-28T13:56:23;10.75;;;6.20;;
64188;SDS011;50493;50.970;10.082;2023-02-28T13:59:00;11.32;;;7.72;;
64188;SDS011;50493;50.970;10.082;2023-02-28T14:01:38;8.73;;;6.75;;
64188;SDS011;50493;50.970;10.082;2023-02-28T14:07:20;10.18;;;6.22;;
64188;SDS011;50493;50.970;10.082;2023-02-28T14:09:49;11.13;;;7.38;;
64188;SDS011;50493;50.970;10.082;2023-02-28T14:15:26;9.43;;;6.38;;
64188;SDS011;50493;50.970;10.082;2023-02-28T14:18:05;9.68;;;6.82;;
64188;SDS011;50493;50.970;10.082;2023-02-28T14:20:40;9.85;;;6.50;;
64188;SDS011;50493;50.970;10.082;2023-02-28T14:23:10;11.20;;;7.43;;
64188;SDS011;50493;50.970;10.082;2023-02-28T14:25:43;10.57;;;7.18;;
64188;SDS011;50493;50.970;10.082;2023-02-28T14:28:18;11.00;;;6.95;;
64188;SDS011;50493;50.970;10.082;2023-02-28T14:30:57;13.05;;;6.78;;
64188;SDS011;50493;50.970;10.082;2023-02-28T14:33:34;12.65;;;8.02;;
64188;SDS011;50493;50.970;10.082;2023-02-28T14:36:10;11.20;;;6.18;;
64188;SDS011;50493;50.970;10.082;2023-02-28T14:38:42;9.40;;;6.88;;
64188;SDS011;50493;50.970;10.082;2023-02-28T14:41:14;10.80;;;6.88;;
64188;SDS011;50493;50.970;10.082;2023-02-28T14:43:48;11.20;;;7.22;;
64188;SDS011;50493;50.970;10.082;2023-02-28T14:46:15;10.30;;;6.55;;
64188;SDS011;50493;50.970;10.082;2023-02-28T14:48:45;11.18;;;6.88;;
64188;SDS011;50493;50.970;10.082;2023-02-28T14:51:12;9.90;;;6.63;;
64188;SDS011;50493;50.970;10.082;2023-02-28T14:53:44;10.68;;;6.68;;
64188;SDS011;50493;50.970;10.082;2023-02-28T14:56:18;12.73;;;6.15;;
64188;SDS011;50493;50.970;10.082;2023-02-28T14:58:50;10.77;;;6.95;;
64188;SDS011;50493;50.970;10.082;2023-02-28T15:01:26;10.80;;;6.70;;
64188;SDS011;50493;50.970;10.082;2023-02-28T15:04:00;11.27;;;6.68;;
64188;SDS011;50493;50.970;10.082;2023-02-28T15:06:28;10.65;;;6.88;;
64188;SDS011;50493;50.970;10.082;2023-02-28T15:09:07;12.48;;;6.78;;
64188;SDS011;50493;50.970;10.082;2023-02-28T15:11:34;10.50;;;6.88;;